This is the latest recevied weather packets stored in our database for station/object KB5SMY. If no packets are shown the sender has not sent any weather packets the latest 10 day(s).
| Time | Temp. | Humidity | Pressure | Rain* | Wind** | Luminosity | Snow |
|---|---|---|---|---|---|---|---|
| 1777191004 | 23.89° C | 87% | 1005.7 hPa | 0 mm | - | 0 W/m² | - |
| 1777180204 | 25.56° C | 73% | 1005.3 hPa | 0 mm | - | 0 W/m² | - |
| 1777179004 | 26.11° C | 74% | 1004.9 hPa | 0 mm | - | 0 W/m² | - |
| 1777178404 | 26.11° C | 74% | 1005 hPa | 0 mm | - | 0 W/m² | - |
| 1777177804 | 26.11° C | 74% | 1005 hPa | 0 mm | - | 0 W/m² | - |
| 1777173605 | 26.67° C | 72% | 1004.5 hPa | 0 mm | - | 0 W/m² | - |
| 1777170004 | 26.67° C | 70% | 1003.8 hPa | 0 mm | - | 0 W/m² | - |
| 1777165204 | 27.78° C | 68% | 1002.9 hPa | 0 mm | - | 9 W/m² | - |
| 1777164604 | 28.33° C | 67% | 1003 hPa | 0 mm | - | 19 W/m² | - |
| 1777163404 | 28.89° C | 66% | 1003.4 hPa | 0 mm | - | 46 W/m² | - |
| 1777161604 | 30° C | 63% | 1003.2 hPa | 0 mm | - | 160 W/m² | - |
| 1777159204 | 31.11° C | 59% | 1002.6 hPa | 0 mm | - | 315 W/m² | - |
| 1777158604 | 31.11° C | 58% | 1002.6 hPa | 0 mm | - | 350 W/m² | - |
| 1777155004 | 31.11° C | 60% | 1003.7 hPa | 0 mm | - | 598 W/m² | - |
| 1777153204 | 31.67° C | 59% | 1003.8 hPa | 0 mm | - | 668 W/m² | - |
| 1777152004 | 31.67° C | 58% | 1004 hPa | 0 mm | - | 476 W/m² | - |
| 1777151404 | 31.67° C | 59% | 1004.1 hPa | 0 mm | - | 807 W/m² | - |
| 1777150204 | 31.67° C | 59% | 1004.3 hPa | 0 mm | - | 902 W/m² | - |
| 1777144804 | 31.11° C | 61% | 1005.2 hPa | 0 mm | - | 1014 W/m² | - |
| 1777140605 | 30° C | 65% | 1006.3 hPa | 0 mm | - | 1048 W/m² | - |
| 1777137004 | 28.89° C | 69% | 1007.1 hPa | 0 mm | - | 974 W/m² | - |
| 1777135204 | 27.22° C | 71% | 1007.4 hPa | 0 mm | - | 364 W/m² | - |
| 1777133405 | 26.67° C | 76% | 1007.5 hPa | 0 mm | - | 842 W/m² | - |
| 1777132206 | 26.11° C | 76% | 1007.5 hPa | 0 mm | - | 341 W/m² | - |
| 1777121404 | 21.11° C | 95% | 1007 hPa | 0 mm | - | 49 W/m² | - |
* Rain latest hour (hover to see other rain measurements)
** Current wind speed in m/s (hover to see current wind gust speed)